Friday, July 20, 2018, 4:46 AM EDT
Back to Local

KFKL, Franklin, Venango Regional Airport

Location: Franklin, PA, United States Lat: 41.383
Local Time: 4:46 AM EDT ( 8:46 GMT) Lon: -79.867
Time Zone: US/Eastern Elev: 1538 ft

Show me the last for .
Show Decoded

2018-07-20 03:56 METAR KFKL 200756Z AUTO 15007KT 10SM FEW060 18/14 A3006 RMK AO2 SLP171 T01780139
                 =
2018-07-20 02:56 METAR KFKL 200656Z AUTO 13006KT 10SM CLR 18/14 A3006 RMK AO2 SLP173 T01780144 =
2018-07-20 01:56 METAR KFKL 200556Z AUTO 13007KT 10SM CLR 18/14 A3007 RMK AO2 SLP173 T01780144
                 10250 20178 58003 =
2018-07-20 00:56 METAR KFKL 200456Z AUTO 13007KT 10SM CLR 18/14 A3008 RMK AO2 SLP177 T01780144
                 402670106 =
2018-07-19 23:56 METAR KFKL 200356Z AUTO 12006KT 10SM CLR 19/14 A3008 RMK AO2 SLP179 T01890144 =
2018-07-19 22:56 METAR KFKL 200256Z AUTO 00000KT 10SM CLR 19/15 A3007 RMK AO2 SLP176 T01940150
                 53001 =
2018-07-19 21:56 METAR KFKL 200156Z AUTO 11003KT 10SM CLR 21/14 A3007 RMK AO2 SLP177 T02060144 =
2018-07-19 20:56 METAR KFKL 200056Z AUTO 14005KT 10SM CLR 22/14 A3007 RMK AO2 SLP176 T02220144 =
2018-07-19 19:56 METAR KFKL 192356Z AUTO 12004KT 10SM CLR 25/14 A3007 RMK AO2 SLP176 T02500144
                 10267 20250 58005 =
2018-07-19 18:56 METAR KFKL 192256Z AUTO 14008KT 10SM CLR 26/13 A3007 RMK AO2 SLP179 T02560133 =
2018-07-19 17:56 METAR KFKL 192156Z AUTO VRB06KT 10SM CLR 27/14 A3008 RMK AO2 SLP183 T02670144 =
2018-07-19 16:56 METAR KFKL 192056Z AUTO 11005KT 10SM CLR 27/14 A3009 RMK AO2 SLP182 T02670144
                 57013 =
2018-07-19 15:56 METAR KFKL 191956Z AUTO 22004KT 10SM CLR 27/14 A3010 RMK AO2 SLP186 T02670139 =
2018-07-19 14:56 METAR KFKL 191856Z AUTO 12008KT 9SM SCT048 25/13 A3012 RMK AO2 SLP193 T02500133
                 =
2018-07-19 13:56 METAR KFKL 191756Z AUTO VRB05KT 10SM CLR 25/13 A3013 RMK AO2 SLP196 T02500133
                 10250 20156 58011 =
2018-07-19 12:56 METAR KFKL 191656Z AUTO 16004KT 10SM SCT043 24/13 A3014 RMK AO2 SLP201 T02390128
                 =
2018-07-19 11:56 METAR KFKL 191556Z AUTO 25004KT 10SM FEW043 23/13 A3015 RMK AO2 SLP205 T02280128
                 =
2018-07-19 10:56 METAR KFKL 191456Z AUTO 00000KT 10SM FEW033 22/12 A3016 RMK AO2 SLP208 T02220122
                 51006 =
2018-07-19 09:56 METAR KFKL 191356Z AUTO 00000KT 10SM CLR 21/14 A3016 RMK AO2 SLP208 T02060139 =
2018-07-19 08:56 METAR KFKL 191256Z AUTO 06004KT 10SM CLR 18/13 A3015 RMK AO2 SLP206 T01830133 =
2018-07-19 07:56 METAR KFKL 191156Z AUTO 08003KT 10SM CLR 16/13 A3014 RMK AO2 SLP202 T01560128
                 10156 20106 51003 =
2018-07-19 07:12 METAR KFKL 191112Z AUTO 07004KT 10SM SCT001 12/12 A3014 RMK AO2 =
2018-07-19 07:07 METAR KFKL 191107Z AUTO 07003KT 2SM BR BKN001 12/12 A3014 RMK AO2 =
2018-07-19 07:04 METAR KFKL 191104Z AUTO 07003KT 3/4SM BR BKN001 12/12 A3014 RMK AO2 =
2018-07-19 06:56 METAR KFKL 191056Z AUTO 07003KT 1/4SM FG BKN001 12/11 A3014 RMK AO2 SLP203
                 T01170111 =
2018-07-19 06:48 METAR KFKL 191048Z AUTO 05003KT 1/4SM FG VV001 11/11 A3014 RMK AO2 =
2018-07-19 06:44 METAR KFKL 191044Z AUTO 05004KT 3/4SM BR VV001 11/11 A3014 RMK AO2 =
2018-07-19 06:42 METAR KFKL 191042Z AUTO 05004KT 1 1/4SM BR FEW001 11/11 A3013 RMK AO2 =
2018-07-19 05:56 METAR KFKL 190956Z AUTO 08003KT 10SM CLR 11/11 A3014 RMK AO2 SLP201 T01110106 =
2018-07-19 04:56 METAR KFKL 190856Z AUTO 10004KT 10SM CLR 12/11 A3013 RMK AO2 SLP199 T01170111
                 53005 =

Support USWX by starting your Amazon purchase here.